createdAt,value
2023-04-12T05:27:52.100Z,10.20
2023-04-12T05:32:54.396Z,10.11
2023-04-12T05:37:56.442Z,10.06
2023-04-12T05:42:58.028Z,10.02
2023-04-12T05:47:59.898Z,10.05
2023-04-12T05:53:01.852Z,10.13
2023-04-12T05:58:03.520Z,10.22
2023-04-12T06:03:05.979Z,10.24
2023-04-12T06:08:08.604Z,10.31
2023-04-12T06:13:10.150Z,10.53
2023-04-12T06:18:13.046Z,10.68
2023-04-12T06:23:14.562Z,10.78
2023-04-12T06:28:19.138Z,10.92
2023-04-12T06:33:23.575Z,11.05
2023-04-12T06:38:25.614Z,11.13
2023-04-12T06:43:27.353Z,11.33
2023-04-12T06:48:29.949Z,11.46
2023-04-12T06:53:31.705Z,11.60
2023-04-12T06:58:33.453Z,11.70
2023-04-12T07:03:35.711Z,11.83
2023-04-12T07:08:37.408Z,11.91
2023-04-12T07:13:38.938Z,12.05
2023-04-12T07:18:40.483Z,12.14
2023-04-12T07:23:41.966Z,12.23
2023-04-12T07:28:43.670Z,12.32
2023-04-12T07:33:45.497Z,12.46
2023-04-12T07:38:47.766Z,12.64
2023-04-12T07:43:49.866Z,12.88
2023-04-12T07:48:51.463Z,13.16
2023-04-12T07:53:53.550Z,13.18
2023-04-12T07:58:55.471Z,13.21
2023-04-12T08:03:57.517Z,13.15
2023-04-12T08:08:59.289Z,13.16
2023-04-12T08:14:01.394Z,13.18
2023-04-12T08:19:03.359Z,12.92
2023-04-12T08:24:05.456Z,13.10
2023-04-12T08:29:07.361Z,13.15
2023-04-12T08:34:08.797Z,13.09
2023-04-12T08:39:10.722Z,13.17
2023-04-12T08:44:12.770Z,13.15
2023-04-12T08:49:16.867Z,13.05
2023-04-12T08:54:18.508Z,13.08
2023-04-12T08:59:20.639Z,13.05
2023-04-12T09:04:23.685Z,12.95
2023-04-12T09:09:48.009Z,12.85
2023-04-12T09:15:08.862Z,13.01
2023-04-12T09:20:16.485Z,13.15
2023-04-12T09:25:18.236Z,13.21
2023-04-12T09:30:20.880Z,13.38
2023-04-12T09:35:35.071Z,13.33
2023-04-12T09:40:37.554Z,13.17
2023-04-12T09:45:40.056Z,13.37
2023-04-12T09:50:42.136Z,13.51
2023-04-12T09:55:44.129Z,13.65
2023-04-12T10:00:46.884Z,13.82
2023-04-12T10:05:48.987Z,13.83
2023-04-12T10:10:53.945Z,13.98
2023-04-12T10:15:55.690Z,14.11
2023-04-12T10:20:59.364Z,14.32
2023-04-12T10:26:05.063Z,14.36
2023-04-12T10:31:33.162Z,14.83
2023-04-12T10:36:55.132Z,14.93
2023-04-12T10:42:27.348Z,14.84
2023-04-12T10:47:47.888Z,14.72
2023-04-12T10:53:13.004Z,14.82
2023-04-12T10:58:49.374Z,15.20
2023-04-12T11:04:20.312Z,15.43
2023-04-12T11:09:30.026Z,15.56
2023-04-12T11:14:49.248Z,15.92
2023-04-12T11:19:57.717Z,15.78
2023-04-12T11:25:01.949Z,15.80
2023-04-12T11:30:04.211Z,16.05
2023-04-12T11:35:06.230Z,16.71
2023-04-12T11:40:09.501Z,16.91
2023-04-12T11:45:15.906Z,16.84
2023-04-12T11:50:31.169Z,17.23
2023-04-12T11:55:32.778Z,17.60
2023-04-12T12:00:34.610Z,17.46
2023-04-12T12:05:38.462Z,17.56
2023-04-12T12:10:55.511Z,17.63
2023-04-12T12:16:02.048Z,17.77
2023-04-12T12:21:03.809Z,17.76
2023-04-12T12:26:18.943Z,17.85
2023-04-12T12:31:24.758Z,18.14
2023-04-12T12:36:34.551Z,18.02
2023-04-12T12:41:36.637Z,18.07
2023-04-12T12:51:43.023Z,17.67
2023-04-12T12:56:45.053Z,17.29
2023-04-12T13:01:46.669Z,17.29
2023-04-12T13:06:48.234Z,17.42
2023-04-12T13:11:49.785Z,17.54
2023-04-12T13:16:51.439Z,17.93
2023-04-12T13:21:53.332Z,18.04
2023-04-12T13:26:55.054Z,18.01
2023-04-12T13:31:56.656Z,18.04
2023-04-12T13:36:59.028Z,18.31
2023-04-12T13:42:02.361Z,17.90
2023-04-12T13:47:04.714Z,17.69
2023-04-12T13:52:06.545Z,17.42
2023-04-12T13:57:08.219Z,17.28
2023-04-12T14:02:09.964Z,17.31
2023-04-12T14:07:12.814Z,17.09
2023-04-12T14:12:14.741Z,16.60
2023-04-12T14:17:16.234Z,15.88
2023-04-12T14:22:17.757Z,14.89
2023-04-12T14:27:19.349Z,13.81
2023-04-12T14:32:21.055Z,13.11
2023-04-12T14:37:22.692Z,12.80
2023-04-12T14:42:24.307Z,12.47
2023-04-12T14:47:26.108Z,12.30
2023-04-12T14:52:28.341Z,12.02
2023-04-12T14:57:30.299Z,11.84
2023-04-12T15:02:32.456Z,11.62
2023-04-12T15:07:35.077Z,11.69
2023-04-12T15:12:37.445Z,11.87
2023-04-12T15:17:39.038Z,11.88
2023-04-12T15:22:41.010Z,12.05
2023-04-12T15:27:44.212Z,12.39
2023-04-12T15:32:47.014Z,12.71
2023-04-12T15:37:48.526Z,12.65
2023-04-12T15:42:50.030Z,12.73
2023-04-12T15:47:52.251Z,12.77
2023-04-12T15:52:55.464Z,12.75
2023-04-12T15:57:59.659Z,12.70
2023-04-12T16:03:01.957Z,12.86
2023-04-12T16:08:04.114Z,12.84
2023-04-12T16:13:06.586Z,12.82
2023-04-12T16:18:09.158Z,12.89
2023-04-12T16:23:11.535Z,12.93
2023-04-12T16:28:14.482Z,13.06
2023-04-12T16:33:15.988Z,13.22
2023-04-12T16:38:17.889Z,13.35
2023-04-12T16:43:19.496Z,13.51
2023-04-12T16:48:22.841Z,13.49
2023-04-12T16:53:24.703Z,13.28
2023-04-12T16:58:26.464Z,13.17
2023-04-12T17:03:28.260Z,13.13
2023-04-12T17:08:29.850Z,13.03
2023-04-12T17:13:31.447Z,12.89
2023-04-12T17:18:34.623Z,12.74
2023-04-12T17:23:39.171Z,12.64
2023-04-12T17:28:41.601Z,12.57
2023-04-12T17:33:43.784Z,12.52
2023-04-12T17:38:45.670Z,12.53
2023-04-12T17:43:47.251Z,12.52
2023-04-12T17:48:48.757Z,12.53
2023-04-12T17:53:50.676Z,12.47
2023-04-12T17:58:52.586Z,12.40
2023-04-12T18:03:54.831Z,12.26
2023-04-12T18:08:58.880Z,12.21
2023-04-12T18:14:00.516Z,12.14
2023-04-12T18:19:03.233Z,12.08
2023-04-12T18:24:06.077Z,12.01
2023-04-12T18:29:08.015Z,12.00
2023-04-12T18:34:09.747Z,11.94
2023-04-12T18:39:11.634Z,11.90
2023-04-12T18:44:13.346Z,11.82
2023-04-12T18:49:16.401Z,11.80
2023-04-12T18:54:17.956Z,11.77
2023-04-12T18:59:19.634Z,11.72
2023-04-12T19:04:21.265Z,11.70
2023-04-12T19:09:22.736Z,11.67
2023-04-12T19:14:25.316Z,11.65
2023-04-12T19:19:26.747Z,11.65
2023-04-12T19:24:28.400Z,11.72
2023-04-12T19:29:30.305Z,11.81
2023-04-12T19:34:31.908Z,11.74
2023-04-12T19:39:33.528Z,11.13
2023-04-12T19:44:35.013Z,10.54
2023-04-12T19:49:37.573Z,10.13
2023-04-12T19:54:39.536Z,10.01
2023-04-12T19:59:40.989Z,10.05
2023-04-12T20:04:42.450Z,10.10
2023-04-12T20:09:44.800Z,10.13
2023-04-12T20:14:46.720Z,10.04
2023-04-12T20:19:48.489Z,10.03
2023-04-12T20:24:50.618Z,9.98
2023-04-12T20:29:53.379Z,10.00
2023-04-12T20:34:55.514Z,10.04
2023-04-12T20:39:56.905Z,10.00
2023-04-12T20:44:58.577Z,9.99
2023-04-12T20:50:00.349Z,9.97
2023-04-12T20:55:02.694Z,9.94
2023-04-12T21:00:12.729Z,9.93
2023-04-12T21:05:16.896Z,9.88
2023-04-12T21:10:18.866Z,9.85
2023-04-12T21:15:22.191Z,9.86
2023-04-12T21:20:24.703Z,9.79
2023-04-12T21:25:26.256Z,9.69
2023-04-12T21:30:27.725Z,9.61
2023-04-12T21:35:30.532Z,9.59
2023-04-12T21:40:32.132Z,9.49
2023-04-12T21:45:33.950Z,9.47
2023-04-12T21:50:35.681Z,9.44
2023-04-12T21:55:37.235Z,9.41
2023-04-12T22:00:38.957Z,9.43
2023-04-12T22:05:40.573Z,9.45
2023-04-12T22:10:42.606Z,9.38
2023-04-12T22:15:44.168Z,9.35
2023-04-12T22:20:46.325Z,9.34
2023-04-12T22:25:49.525Z,9.26
2023-04-12T22:30:51.630Z,9.17
2023-04-12T22:35:53.046Z,9.10
2023-04-12T22:41:02.209Z,9.10
2023-04-12T22:46:05.950Z,9.05
2023-04-12T22:51:08.417Z,9.01
2023-04-12T22:56:10.281Z,8.99
2023-04-12T23:01:12.238Z,9.07
2023-04-12T23:06:13.786Z,9.18
2023-04-12T23:11:15.183Z,9.15
2023-04-12T23:16:16.924Z,9.04
2023-04-12T23:21:18.676Z,8.93
2023-04-12T23:26:20.273Z,8.85
2023-04-12T23:31:21.788Z,8.79
2023-04-12T23:36:25.724Z,8.81
2023-04-12T23:41:31.852Z,8.84
2023-04-12T23:46:33.392Z,8.82
2023-04-12T23:51:34.819Z,8.72
2023-04-12T23:56:36.387Z,8.62
